aviador You're here:

KCCY Decoded Metar

CHARLES CITY in IA, USA
Report Time2017-12-16 10:55:00
UTC Time2017-12-16 11:03:26
Flight Rules vfr VFR
Wind190° at 07 kt
W.Decomp.*RWY 18: 6.9 kt HW 0.9 kt RCW
RWY 22: 5.9 kt HW 3.8 kt LCW
RWY 12: 2.7 kt HW 6.4 kt RCW
W.Rank190° ranks 12
Current wind is below 190° avg. (9.0)
Visibility9999 m
Phenomena:N/A
Clouds:N/A
Expected CloudBase > 400 ft AGL from Temp-Dew spread
CeilingNone
Temp-4°C (ISA -17)
Dew Point-5°C (93% RH)
AAT-9.1°C
QNH1005 hPa
Density Alt-600 ft
Elevation1,125 ft
Report Wrong Elevation
Raw Report
METAR KCCY 161055Z AUTO 19007KT 10SM CLR M04/M05 A2969 RMK AO2=

Extra information for KCCY:More info

Metar Taf Metar & Taf Last 4 Metars F.Rules Stats Wind Profile Meteogram Temp Stats Airport Information Weather charts Add Link Nearby VenuesMetar ALERT Operation Metar Decoded Social comments

AIRNAV info for KCCY